Time;durP1;ratioP1;P1;durP2;ratioP2;P2;SDS_P1;SDS_P2;PMS_P1;PMS_P2;Temp;Humidity;BMP_temperature;BMP_pressure;BME280_temperature;BME280_humidity;BME280_pressure;Samples;Min_cycle;Max_cycle;Signal;HPM_P1;HPM_P2
2022/02/06 00:02:02;;;;;;;13.00;5.90;;;;;;;0.29;80.18;99111.73;109407;1274;22493;-55
2022/02/06 00:04:30;;;;;;;14.30;5.80;;;;;;;0.31;79.95;99114.05;109250;1274;138774;-56
2022/02/06 00:06:58;;;;;;;12.70;5.20;;;;;;;0.31;80.02;99112.44;109448;1273;22478;-55
2022/02/06 00:09:26;;;;;;;10.10;5.10;;;;;;;0.33;80.24;99121.39;109285;1273;137818;-56
2022/02/06 00:11:56;;;;;;;11.50;5.20;;;;;;;0.33;79.88;99114.27;109407;1274;22470;-56
2022/02/06 00:14:24;;;;;;;12.00;5.20;;;;;;;0.32;79.94;99119.86;109454;1272;23347;-56
2022/02/06 00:16:52;;;;;;;11.70;5.90;;;;;;;0.32;79.58;99112.94;109365;1274;138769;-56
2022/02/06 00:19:19;;;;;;;9.50;4.70;;;;;;;0.31;79.67;99112.85;109449;1273;22410;-56
2022/02/06 00:21:48;;;;;;;12.40;5.00;;;;;;;0.30;79.68;99105.39;109299;1274;138373;-55
2022/02/06 00:24:24;;;;;;;13.20;5.00;;;;;;;0.32;79.48;99102.42;109433;1273;22449;-56
2022/02/06 00:27:04;;;;;;;12.30;5.60;;;;;;;0.32;79.55;99101.52;109401;1273;22514;-56
2022/02/06 00:29:53;;;;;;;13.90;5.70;;;;;;;0.33;79.72;99099.42;109220;1274;138321;-56
2022/02/06 00:32:44;;;;;;;12.60;5.70;;;;;;;0.34;79.75;99099.30;109435;1274;22452;-55
2022/02/06 00:40:42;;;;;;;11.40;5.70;;;;;;;0.34;79.73;99101.40;106920;1273;138394;-52
2022/02/06 00:43:10;;;;;;;12.10;5.80;;;;;;;0.34;79.65;99099.34;104971;1274;25177;-52
2022/02/06 00:45:38;;;;;;;9.70;5.40;;;;;;;0.33;79.47;99101.35;109234;1274;137458;-53
2022/02/06 00:48:06;;;;;;;15.20;5.10;;;;;;;0.33;79.55;99104.28;109398;1274;22560;-53
2022/02/06 00:50:38;;;;;;;13.00;5.80;;;;;;;0.30;79.83;99102.46;109484;1273;22601;-53
2022/02/06 00:53:13;;;;;;;14.60;5.90;;;;;;;0.28;79.53;99096.48;109153;1274;138108;-53
2022/02/06 00:55:41;;;;;;;12.30;5.80;;;;;;;0.28;79.81;99094.55;109345;1273;22514;-53
2022/02/06 00:58:09;;;;;;;9.80;5.20;;;;;;;0.28;79.83;99090.15;109273;1271;137914;-53
2022/02/06 01:00:37;;;;;;;8.90;4.80;;;;;;;0.28;79.49;99091.92;109358;1275;22455;-53
2022/02/06 01:03:05;;;;;;;10.80;5.20;;;;;;;0.29;79.85;99088.89;109426;1273;22387;-53
2022/02/06 01:05:54;;;;;;;12.20;5.00;;;;;;;0.30;80.19;99086.09;109448;1274;22525;-53
2022/02/06 01:08:22;;;;;;;10.90;4.80;;;;;;;0.31;79.77;99084.65;109429;1273;23247;-53
2022/02/06 01:10:50;;;;;;;8.10;4.60;;;;;;;0.32;80.13;99082.27;109282;1274;138541;-53
2022/02/06 01:16:00;;;;;;;9.70;5.30;;;;;;;0.31;80.11;99084.37;109301;1274;137406;-53
2022/02/06 01:18:35;;;;;;;10.70;5.30;;;;;;;0.32;79.88;99089.68;109237;1274;22477;-53
2022/02/06 01:21:15;;;;;;;11.40;5.60;;;;;;;0.30;80.04;99087.45;109246;1273;23346;-53
2022/02/06 01:26:24;;;;;;;9.90;4.80;;;;;;;0.27;80.08;99087.02;109352;1273;22725;-53
2022/02/06 01:29:03;;;;;;;11.70;5.50;;;;;;;0.25;80.08;99083.70;109217;1274;139960;-53
2022/02/06 01:31:54;;;;;;;11.10;5.50;;;;;;;0.25;79.86;99091.62;109358;1274;22497;-53
2022/02/06 01:34:29;;;;;;;9.60;4.70;;;;;;;0.25;80.07;99089.96;109320;1274;137893;-53
2022/02/06 01:37:09;;;;;;;10.60;4.80;;;;;;;0.25;80.04;99090.51;109443;1274;22482;-53
2022/02/06 01:39:51;;;;;;;9.10;4.10;;;;;;;0.26;80.26;99091.92;109323;1273;139016;-53
2022/02/06 01:42:29;;;;;;;9.60;4.30;;;;;;;0.27;80.53;99096.29;109374;1274;22414;-53
2022/02/06 02:07:38;;;;;;;9.50;4.90;;;;;;;0.26;80.49;99091.98;109402;1273;22441;-53
2022/02/06 02:09:55;;;;;;;10.40;5.20;;;;;;;0.25;80.62;99094.05;109227;1274;22726;-53
2022/02/06 02:21:12;;;;;;;11.30;4.60;;;;;;;0.26;81.03;99098.02;109460;1273;23354;-53
2022/02/06 02:26:45;;;;;;;13.40;6.60;;;;;;;0.27;81.20;99103.50;109455;1274;23188;-53
2022/02/06 02:48:03;;;;;;;16.60;7.80;;;;;;;0.26;81.32;99111.73;109288;1272;139743;-53
2022/02/06 02:50:37;;;;;;;15.70;6.80;;;;;;;0.27;81.35;99114.02;109456;1271;22451;-53
2022/02/06 03:03:31;;;;;;;15.50;7.60;;;;;;;0.32;81.68;99111.90;109305;1274;23438;-53
2022/02/06 03:06:00;;;;;;;17.00;8.00;;;;;;;0.32;81.53;99115.86;109262;1274;138595;-53
2022/02/06 03:08:29;;;;;;;16.30;8.40;;;;;;;0.31;81.58;99116.14;109399;1274;22468;-53
2022/02/06 03:10:59;;;;;;;17.70;6.80;;;;;;;0.29;81.46;99118.87;109263;1274;139274;-53
2022/02/06 03:13:37;;;;;;;15.20;8.10;;;;;;;0.28;81.49;99116.40;109280;1276;22472;-53
2022/02/06 03:21:30;;;;;;;17.80;7.90;;;;;;;0.24;81.04;99115.23;109261;1274;22484;-53
2022/02/06 03:24:10;;;;;;;12.20;6.50;;;;;;;0.24;81.17;99116.34;109209;1274;139960;-53
2022/02/06 03:26:38;;;;;;;28.60;10.30;;;;;;;0.24;81.40;99113.17;109305;1274;23068;-53
2022/02/06 03:29:07;;;;;;;21.70;8.20;;;;;;;0.23;81.49;99115.94;109148;1274;139465;-53
2022/02/06 03:31:36;;;;;;;18.80;8.50;;;;;;;0.24;81.58;99116.02;109305;1274;23506;-53
2022/02/06 03:34:04;;;;;;;25.40;9.50;;;;;;;0.25;81.76;99114.29;109225;1275;139676;-53
2022/02/06 03:36:32;;;;;;;18.00;7.60;;;;;;;0.25;81.39;99109.80;109275;1276;22439;-53
2022/02/06 03:39:00;;;;;;;17.70;8.10;;;;;;;0.27;81.43;99112.77;109224;1274;23307;-53
2022/02/06 03:42:15;;;;;;;22.80;9.40;;;;;;;0.25;81.53;99108.92;109277;1274;137475;-53
2022/02/06 03:44:40;;;;;;;22.00;9.90;;;;;;;0.23;81.72;99112.18;109336;1274;22567;-53
2022/02/06 03:47:34;;;;;;;21.50;9.70;;;;;;;0.22;81.65;99112.34;109241;1274;137790;-53
2022/02/06 03:50:04;;;;;;;20.60;8.70;;;;;;;0.22;81.89;99115.34;109366;1274;23291;-53
2022/02/06 03:52:42;;;;;;;18.80;7.80;;;;;;;0.20;81.86;99112.08;109246;1274;138591;-53
2022/02/06 03:55:18;;;;;;;20.50;8.00;;;;;;;0.19;81.96;99110.56;109355;1274;22689;-53
2022/02/06 03:57:47;;;;;;;17.00;8.50;;;;;;;0.22;81.86;99112.13;109374;1274;23232;-53
2022/02/06 04:00:16;;;;;;;20.90;8.10;;;;;;;0.24;82.27;99114.25;109234;1274;138204;-53
2022/02/06 04:02:45;;;;;;;18.90;9.00;;;;;;;0.26;82.10;99112.39;109278;1275;23264;-53
2022/02/06 04:05:17;;;;;;;18.80;7.30;;;;;;;0.27;82.07;99117.52;109184;1276;138083;-53
2022/02/06 04:07:47;;;;;;;12.70;6.30;;;;;;;0.29;81.91;99117.14;109367;1273;22459;-53
2022/02/06 04:10:16;;;;;;;18.60;7.30;;;;;;;0.30;82.17;99122.98;109234;1275;139759;-53
2022/02/06 04:12:46;;;;;;;18.00;8.10;;;;;;;0.32;82.28;99127.73;109273;1274;23070;-54
2022/02/06 04:15:23;;;;;;;14.50;7.60;;;;;;;0.34;82.07;99129.27;109340;1275;22459;-53
2022/02/06 04:18:06;;;;;;;19.00;7.10;;;;;;;0.35;81.89;99126.88;109201;1274;138288;-52
2022/02/06 04:20:34;;;;;;;23.10;8.90;;;;;;;0.34;82.07;99127.45;109450;1274;22448;-53
2022/02/06 04:23:03;;;;;;;14.10;7.20;;;;;;;0.33;82.05;99126.75;109220;1274;139915;-53
2022/02/06 04:25:31;;;;;;;20.10;9.00;;;;;;;0.34;82.13;99125.39;109236;1274;22503;-53
2022/02/06 04:27:59;;;;;;;15.80;7.50;;;;;;;0.32;82.22;99125.44;109161;1274;138024;-53
2022/02/06 04:30:27;;;;;;;14.60;6.70;;;;;;;0.34;82.01;99132.20;109265;1274;23094;-53
2022/02/06 04:32:55;;;;;;;13.40;7.00;;;;;;;0.34;81.92;99128.69;109386;1274;22419;-53
2022/02/06 04:35:27;;;;;;;16.60;7.30;;;;;;;0.36;82.03;99128.91;109191;1276;139121;-53
2022/02/06 05:21:33;;;;;;;9.80;5.00;;;;;;;0.25;82.30;99152.17;104970;1274;25300;-55
2022/02/06 05:26:51;;;;;;;17.20;8.40;;;;;;;0.25;82.42;99161.65;104931;1276;25430;-55
2022/02/06 05:34:17;;;;;;;16.40;7.60;;;;;;;0.25;82.28;99159.05;104836;1274;138360;-54
2022/02/06 05:36:47;;;;;;;16.70;8.30;;;;;;;0.25;82.37;99164.29;104899;1274;24003;-54
2022/02/06 05:39:15;;;;;;;12.50;7.40;;;;;;;0.24;82.35;99167.66;104990;1274;25408;-55
2022/02/06 05:41:43;;;;;;;14.80;7.40;;;;;;;0.24;82.47;99176.15;104770;1276;137911;-54
2022/02/06 05:44:11;;;;;;;21.10;10.20;;;;;;;0.24;82.63;99181.92;109230;1274;23481;-54
2022/02/06 05:46:39;;;;;;;18.10;11.30;;;;;;;0.23;82.50;99178.12;109132;1274;138901;-54
2022/02/06 05:49:11;;;;;;;20.60;9.70;;;;;;;0.24;82.36;99178.00;109312;1274;22535;-54
2022/02/06 05:51:39;;;;;;;18.20;9.80;;;;;;;0.26;82.51;99178.66;109352;1274;22738;-54
2022/02/06 05:54:07;;;;;;;18.40;8.80;;;;;;;0.29;82.59;99176.08;109270;1274;138436;-54
2022/02/06 05:56:35;;;;;;;14.80;7.20;;;;;;;0.31;82.46;99177.39;109387;1274;23492;-54
2022/02/06 05:59:03;;;;;;;16.70;7.10;;;;;;;0.33;82.37;99182.98;109249;1274;138898;-54
2022/02/06 06:01:31;;;;;;;11.90;5.80;;;;;;;0.36;82.39;99187.20;109311;1274;23127;-55
2022/02/06 06:03:59;;;;;;;13.60;7.00;;;;;;;0.38;82.57;99188.86;109176;1274;139350;-54
2022/02/06 06:06:27;;;;;;;11.30;6.30;;;;;;;0.39;82.33;99190.48;109281;1274;22396;-54
2022/02/06 06:08:56;;;;;;;14.80;7.80;;;;;;;0.41;82.58;99189.36;109341;1274;22500;-54
2022/02/06 06:11:24;;;;;;;10.50;6.80;;;;;;;0.42;82.47;99188.14;109179;1275;139423;-55
2022/02/06 06:16:07;;;;;;;12.80;7.90;;;;;;;0.45;82.45;99187.31;101745;1307;545375;-55
2022/02/06 06:18:36;;;;;;;14.40;7.10;;;;;;;0.44;82.46;99190.44;103749;1289;22574;-55
2022/02/06 06:21:05;;;;;;;13.30;8.00;;;;;;;0.44;82.37;99194.64;103552;1289;23986;-55
2022/02/06 06:23:33;;;;;;;14.50;8.00;;;;;;;0.44;82.17;99194.32;103544;1289;138919;-55
2022/02/06 06:26:01;;;;;;;15.90;8.50;;;;;;;0.43;82.42;99195.52;103707;1289;22577;-55
2022/02/06 06:28:29;;;;;;;14.80;7.90;;;;;;;0.42;82.34;99193.83;104613;1277;138696;-54
2022/02/06 06:30:58;;;;;;;15.50;7.90;;;;;;;0.40;82.40;99188.95;104599;1276;22554;-55
2022/02/06 06:33:26;;;;;;;19.00;9.40;;;;;;;0.43;82.53;99188.86;104828;1276;24286;-53
2022/02/06 06:35:55;;;;;;;16.10;7.80;;;;;;;0.44;82.75;99188.09;104681;1276;138268;-56
2022/02/06 06:38:23;;;;;;;14.30;8.50;;;;;;;0.45;82.38;99184.91;104725;1276;23891;-56
2022/02/06 06:40:52;;;;;;;14.70;7.80;;;;;;;0.46;82.58;99184.55;104751;1276;139109;-56
2022/02/06 06:43:20;;;;;;;14.20;7.60;;;;;;;0.48;82.56;99182.45;109180;1275;23408;-57
2022/02/06 06:45:48;;;;;;;13.70;8.00;;;;;;;0.50;82.57;99181.55;109158;1275;22471;-54
2022/02/06 06:48:16;;;;;;;15.70;8.40;;;;;;;0.51;82.76;99186.38;109214;1274;137455;-56
2022/02/06 06:50:44;;;;;;;15.20;8.10;;;;;;;0.52;82.29;99181.23;109318;1275;22486;-55
2022/02/06 06:53:13;;;;;;;19.10;8.70;;;;;;;0.54;82.65;99182.77;109171;1275;136770;-55
2022/02/06 06:55:45;;;;;;;18.70;8.80;;;;;;;0.56;82.51;99193.22;109272;1274;22540;-55
2022/02/06 06:58:18;;;;;;;17.20;8.40;;;;;;;0.57;82.45;99192.55;109158;1274;137071;-55
2022/02/06 07:03:32;;;;;;;13.10;7.70;;;;;;;0.60;82.36;99188.99;109293;1274;23378;-55
2022/02/06 07:06:01;;;;;;;14.10;8.40;;;;;;;0.62;82.20;99187.32;109145;1275;137878;-55
2022/02/06 07:08:29;;;;;;;17.70;7.80;;;;;;;0.64;82.13;99188.40;109296;1276;22685;-55
2022/02/06 07:10:58;;;;;;;14.00;7.70;;;;;;;0.68;82.31;99198.48;109186;1276;137572;-55
2022/02/06 07:13:26;;;;;;;23.30;8.90;;;;;;;0.70;82.36;99193.13;109300;1274;22440;-55
2022/02/06 07:15:55;;;;;;;10.70;6.60;;;;;;;0.74;82.38;99191.10;109126;1276;138358;-56
2022/02/06 07:18:23;;;;;;;14.40;7.30;;;;;;;0.77;82.22;99190.24;109168;1275;23467;-55
2022/02/06 07:20:53;;;;;;;13.90;7.30;;;;;;;0.78;82.12;99182.24;109186;1275;22493;-55
2022/02/06 07:23:26;;;;;;;10.70;7.00;;;;;;;0.84;81.86;99187.71;109164;1275;137820;-55
2022/02/06 07:25:59;;;;;;;13.70;7.60;;;;;;;0.85;81.89;99178.17;109256;1274;22458;-55
2022/02/06 07:28:29;;;;;;;14.70;7.90;;;;;;;0.87;81.86;99173.67;109167;1276;138535;-55
2022/02/06 07:30:58;;;;;;;12.50;7.80;;;;;;;0.91;81.88;99168.92;109218;1275;22496;-56
2022/02/06 07:33:26;;;;;;;13.60;7.70;;;;;;;0.92;81.50;99174.55;109240;1275;22408;-55
2022/02/06 07:35:55;;;;;;;15.60;8.30;;;;;;;0.93;81.42;99173.48;109101;1274;138448;-56
2022/02/06 07:38:22;;;;;;;15.70;7.70;;;;;;;0.94;81.35;99176.55;109202;1275;22414;-56
2022/02/06 07:40:52;;;;;;;12.10;7.00;;;;;;;0.96;81.13;99176.71;109085;1275;138108;-55
2022/02/06 07:43:20;;;;;;;11.70;7.10;;;;;;;0.96;81.03;99181.41;109223;1275;22490;-55
2022/02/06 07:45:48;;;;;;;11.80;7.50;;;;;;;0.99;81.23;99180.84;109273;1275;22679;-55
2022/02/06 07:48:19;;;;;;;14.30;7.10;;;;;;;1.02;81.23;99184.27;109115;1274;138238;-55
2022/02/06 07:50:47;;;;;;;10.30;6.20;;;;;;;1.06;80.99;99180.50;109240;1275;23294;-55
2022/02/06 07:53:15;;;;;;;12.60;6.40;;;;;;;1.10;80.89;99182.25;109153;1275;137089;-55
2022/02/06 07:55:43;;;;;;;13.90;7.10;;;;;;;1.13;80.84;99182.67;109215;1276;22446;-55
2022/02/06 07:58:11;;;;;;;15.40;6.90;;;;;;;1.13;80.60;99184.57;109133;1275;137005;-55
2022/02/06 08:00:40;;;;;;;9.80;6.10;;;;;;;1.15;80.51;99186.34;109247;1275;22537;-55
2022/02/06 08:03:09;;;;;;;15.50;6.60;;;;;;;1.15;80.46;99183.52;109267;1275;22428;-55
2022/02/06 08:05:37;;;;;;;14.50;6.60;;;;;;;1.17;80.15;99187.11;109142;1274;137579;-55
2022/02/06 08:08:13;;;;;;;15.40;8.30;;;;;;;1.17;80.18;99186.11;109249;1275;22513;-55
2022/02/06 08:10:41;;;;;;;19.00;9.20;;;;;;;1.16;80.08;99187.48;109109;1276;137970;-55
2022/02/06 08:13:22;;;;;;;16.30;8.40;;;;;;;1.17;79.93;99186.56;109263;1274;23213;-55
2022/02/06 08:15:51;;;;;;;13.40;7.20;;;;;;;1.17;79.67;99188.42;109287;1274;23215;-55
2022/02/06 08:18:19;;;;;;;14.20;6.90;;;;;;;1.18;79.91;99189.88;109178;1276;137610;-55
2022/02/06 08:20:47;;;;;;;14.50;6.90;;;;;;;1.21;79.72;99184.93;109258;1275;23360;-55
2022/02/06 08:23:15;;;;;;;11.60;5.80;;;;;;;1.23;79.54;99191.66;109181;1276;138280;-55
2022/02/06 08:25:43;;;;;;;12.40;5.90;;;;;;;1.24;79.52;99184.52;109268;1275;22426;-55
2022/02/06 08:28:11;;;;;;;14.30;7.20;;;;;;;1.28;79.45;99189.66;109078;1274;137510;-55
2022/02/06 08:30:41;;;;;;;12.20;6.00;;;;;;;1.30;79.33;99191.34;109217;1276;23201;-55
2022/02/06 08:33:09;;;;;;;12.70;6.20;;;;;;;1.29;79.17;99183.11;109253;1273;22419;-55
2022/02/06 08:35:38;;;;;;;12.20;6.60;;;;;;;1.32;78.80;99190.71;109105;1274;137989;-56
2022/02/06 08:38:06;;;;;;;13.20;6.90;;;;;;;1.33;78.73;99190.62;109209;1276;22518;-55
2022/02/06 08:40:34;;;;;;;11.40;6.70;;;;;;;1.34;78.66;99194.42;109121;1276;138163;-58
2022/02/06 08:43:02;;;;;;;14.10;7.00;;;;;;;1.36;78.64;99189.94;109208;1276;22487;-58
2022/02/06 08:45:30;;;;;;;15.90;7.20;;;;;;;1.38;78.61;99188.28;109167;1275;22458;-58
2022/02/06 08:47:58;;;;;;;12.90;7.10;;;;;;;1.44;78.48;99187.00;109123;1275;139148;-58
2022/02/06 08:50:26;;;;;;;13.60;6.80;;;;;;;1.46;78.15;99188.80;109198;1275;22422;-58
2022/02/06 08:52:58;;;;;;;10.50;5.80;;;;;;;1.49;78.16;99186.28;109103;1276;139279;-58
2022/02/06 08:55:27;;;;;;;9.80;6.20;;;;;;;1.51;78.09;99188.89;109198;1274;22527;-58
2022/02/06 08:57:56;;;;;;;13.20;7.10;;;;;;;1.53;78.00;99193.40;109234;1275;22468;-58
2022/02/06 09:00:24;;;;;;;12.10;6.00;;;;;;;1.56;77.88;99190.55;109169;1274;138763;-58
2022/02/06 09:02:53;;;;;;;11.40;5.50;;;;;;;1.58;77.50;99183.11;109161;1274;22511;-57
2022/02/06 09:05:23;;;;;;;12.10;5.50;;;;;;;1.58;77.48;99175.34;109210;1275;138594;-58
2022/02/06 09:07:52;;;;;;;9.40;4.90;;;;;;;1.60;77.16;99171.02;109315;1274;23277;-58
2022/02/06 09:10:21;;;;;;;10.80;5.20;;;;;;;1.61;76.97;99166.56;109141;1275;140083;-57
2022/02/06 09:12:54;;;;;;;10.80;5.30;;;;;;;1.62;77.01;99165.66;109162;1276;24410;-58
2022/02/06 09:15:22;;;;;;;13.60;6.50;;;;;;;1.64;76.81;99174.71;109098;1276;23737;-58
2022/02/06 09:17:51;;;;;;;13.60;5.80;;;;;;;1.66;76.76;99166.36;108967;1276;138724;-59
2022/02/06 09:20:20;;;;;;;10.10;4.90;;;;;;;1.69;76.34;99166.36;109282;1275;22439;-58
2022/02/06 09:22:48;;;;;;;34.20;12.90;;;;;;;1.71;76.41;99164.46;109076;1275;138094;-58
2022/02/06 09:25:16;;;;;;;12.80;6.30;;;;;;;1.74;76.18;99155.55;109231;1275;22499;-58
2022/02/06 09:27:44;;;;;;;20.20;7.90;;;;;;;1.77;76.07;99152.98;109266;1276;23235;-58
2022/02/06 09:30:17;;;;;;;11.40;6.00;;;;;;;1.81;75.99;99147.52;109204;1274;137755;-57
2022/02/06 09:35:14;;;;;;;10.40;4.40;;;;;;;1.88;75.52;99144.19;109139;1276;138658;-58
2022/02/06 09:37:42;;;;;;;13.50;5.70;;;;;;;1.91;75.30;99141.99;109255;1274;22503;-58
2022/02/06 09:40:13;;;;;;;14.30;5.60;;;;;;;1.93;75.05;99134.39;109130;1274;138842;-58
2022/02/06 09:42:43;;;;;;;13.30;5.50;;;;;;;1.95;74.59;99125.21;109322;1274;23398;-58
2022/02/06 09:45:11;;;;;;;16.30;6.10;;;;;;;1.95;74.58;99123.19;109327;1275;22331;-58
2022/02/06 09:47:41;;;;;;;11.30;4.80;;;;;;;1.96;74.39;99118.80;109190;1275;137107;-58
2022/02/06 09:50:10;;;;;;;10.80;4.90;;;;;;;1.96;74.11;99116.94;109273;1275;22477;-58
2022/02/06 09:52:39;;;;;;;11.00;5.60;;;;;;;1.98;74.01;99112.67;109203;1275;140001;-58
2022/02/06 09:55:12;;;;;;;13.20;5.70;;;;;;;2.00;73.70;99114.08;109271;1274;23340;-58
2022/02/06 09:57:53;;;;;;;10.70;4.70;;;;;;;2.02;73.62;99121.67;109327;1275;22443;-57
2022/02/06 10:00:23;;;;;;;16.50;4.50;;;;;;;2.04;73.38;99119.17;109236;1275;137278;-58
2022/02/06 10:02:52;;;;;;;11.60;5.10;;;;;;;2.07;73.33;99115.73;109369;1275;22508;-58
2022/02/06 10:05:21;;;;;;;15.20;6.60;;;;;;;2.10;73.33;99110.23;109212;1275;136984;-58
2022/02/06 10:08:04;;;;;;;11.70;5.40;;;;;;;2.15;73.16;99106.79;109353;1274;22474;-58
2022/02/06 10:10:32;;;;;;;9.10;4.70;;;;;;;2.20;73.09;99101.08;109198;1275;138012;-58
2022/02/06 10:13:00;;;;;;;10.60;4.90;;;;;;;2.24;72.87;99105.20;109184;1276;23421;-58
2022/02/06 10:15:29;;;;;;;10.70;4.70;;;;;;;2.24;72.63;99095.07;109303;1276;22519;-58
2022/02/06 10:17:57;;;;;;;17.60;6.40;;;;;;;2.30;72.59;99096.83;109210;1274;138184;-57
2022/02/06 10:20:32;;;;;;;11.50;5.70;;;;;;;2.32;72.46;99095.35;109291;1276;22239;-58
2022/02/06 10:23:05;;;;;;;14.40;5.30;;;;;;;2.35;72.20;99096.45;109160;1275;138709;-58
2022/02/06 10:25:40;;;;;;;9.40;4.70;;;;;;;2.36;71.88;99093.98;109148;1277;22501;-57
2022/02/06 10:30:49;;;;;;;9.40;4.10;;;;;;;2.38;71.76;99084.36;109110;1277;22668;-58
2022/02/06 10:33:21;;;;;;;13.60;5.80;;;;;;;2.40;71.43;99083.53;109155;1277;22455;-58
2022/02/06 10:35:51;;;;;;;11.20;4.40;;;;;;;2.43;71.43;99075.78;109152;1275;138929;-58
2022/02/06 10:38:25;;;;;;;9.60;5.00;;;;;;;2.41;71.45;99065.56;109252;1276;22458;-58
2022/02/06 10:41:24;;;;;;;8.60;4.40;;;;;;;2.49;71.36;99075.89;109163;1275;138239;-58
2022/02/06 10:44:02;;;;;;;15.70;6.70;;;;;;;2.55;71.31;99072.52;109275;1275;22442;-58
2022/02/06 10:46:33;;;;;;;17.10;6.10;;;;;;;2.60;71.12;99069.20;109161;1274;139256;-58
2022/02/06 10:49:03;;;;;;;14.20;6.00;;;;;;;2.64;70.82;99065.90;109286;1275;22485;-58
2022/02/06 10:51:44;;;;;;;13.20;4.90;;;;;;;2.74;70.79;99067.70;109280;1276;22608;-58
2022/02/06 10:54:26;;;;;;;11.10;4.60;;;;;;;2.81;70.30;99061.59;109143;1276;138012;-58
2022/02/06 10:57:10;;;;;;;14.70;6.30;;;;;;;2.88;70.15;99061.27;109242;1274;22419;-58
2022/02/06 10:59:48;;;;;;;13.50;4.60;;;;;;;2.94;70.01;99062.69;109156;1275;138823;-58
2022/02/06 11:02:31;;;;;;;11.40;4.40;;;;;;;2.99;69.80;99058.19;109291;1276;22435;-58
2022/02/06 11:05:21;;;;;;;11.40;5.10;;;;;;;3.03;69.53;99054.38;109049;1275;138334;-58
2022/02/06 11:07:56;;;;;;;9.70;4.30;;;;;;;3.04;69.26;99051.59;109151;1276;23644;-58
2022/02/06 11:10:31;;;;;;;9.60;3.70;;;;;;;3.06;69.11;99052.35;109058;1276;139339;-58
2022/02/06 11:13:02;;;;;;;16.10;6.50;;;;;;;3.06;68.97;99052.10;109287;1276;23196;-58
2022/02/06 11:15:41;;;;;;;16.00;6.90;;;;;;;3.06;69.02;99059.52;109248;1275;22470;-58
2022/02/06 11:18:20;;;;;;;11.50;5.70;;;;;;;3.06;68.97;99058.32;109175;1275;137134;-57
2022/02/06 11:20:55;;;;;;;7.70;4.10;;;;;;;3.05;68.93;99054.48;109272;1276;22514;-58
2022/02/06 11:23:24;;;;;;;14.80;4.90;;;;;;;3.02;68.78;99047.81;109170;1275;138776;-58
2022/02/06 11:25:52;;;;;;;13.50;5.50;;;;;;;3.02;68.84;99047.30;109253;1275;22467;-57
2022/02/06 11:28:20;;;;;;;11.50;4.60;;;;;;;3.02;68.97;99044.17;109071;1276;139946;-58
2022/02/06 11:30:50;;;;;;;12.50;5.20;;;;;;;3.04;69.18;99045.29;109265;1275;22436;-57
2022/02/06 11:33:18;;;;;;;14.40;6.90;;;;;;;3.06;69.23;99050.41;109148;1276;22416;-58
2022/02/06 11:35:55;;;;;;;15.20;5.30;;;;;;;3.08;69.42;99049.98;109189;1276;138104;-58
2022/02/06 11:44:50;;;;;;;12.70;5.40;;;;;;;3.12;69.48;99046.48;109124;1276;22574;-58
2022/02/06 11:47:28;;;;;;;13.00;5.30;;;;;;;3.11;69.28;99041.50;109013;1276;137729;-58
2022/02/06 11:49:57;;;;;;;15.40;7.30;;;;;;;3.07;69.12;99042.66;109164;1276;22548;-58
2022/02/06 11:52:59;;;;;;;13.40;6.70;;;;;;;3.03;69.17;99049.20;109067;1276;137348;-58
2022/02/06 11:55:48;;;;;;;13.90;6.60;;;;;;;2.98;69.49;99049.75;109246;1275;22482;-58
2022/02/06 11:58:23;;;;;;;24.80;10.20;;;;;;;2.93;69.88;99051.60;109180;1275;139011;-58
2022/02/06 12:01:14;;;;;;;20.30;8.10;;;;;;;2.84;70.38;99049.29;109035;1277;22454;-58
2022/02/06 12:04:17;;;;;;;22.80;10.10;;;;;;;2.77;70.95;99046.15;109139;1276;22623;-58
2022/02/06 12:06:45;;;;;;;28.90;12.50;;;;;;;2.74;71.20;99045.64;109319;1275;22495;-58
2022/02/06 12:09:29;;;;;;;18.10;8.80;;;;;;;2.73;71.34;99042.80;109226;1276;22401;-58
2022/02/06 12:12:04;;;;;;;17.30;7.70;;;;;;;2.73;71.61;99038.95;109140;1276;138136;-58
2022/02/06 12:14:44;;;;;;;27.50;12.60;;;;;;;2.74;71.69;99036.38;109293;1275;22462;-58
2022/02/06 12:20:15;;;;;;;32.80;13.80;;;;;;;2.72;71.54;99023.36;109102;1276;22484;-57
2022/02/06 12:22:43;;;;;;;25.40;14.90;;;;;;;2.70;71.61;99026.02;109170;1273;138080;-58
2022/02/06 12:25:25;;;;;;;22.30;13.40;;;;;;;2.69;71.58;99026.77;109311;1275;22450;-58
2022/02/06 12:28:19;;;;;;;18.50;10.50;;;;;;;2.68;71.76;99026.73;109256;1275;22504;-58
2022/02/06 12:30:48;;;;;;;20.70;9.50;;;;;;;2.68;71.94;99025.20;109142;1276;138173;-58
2022/02/06 12:33:31;;;;;;;22.70;12.50;;;;;;;2.67;72.15;99025.88;109240;1276;23178;-58
2022/02/06 12:38:45;;;;;;;14.80;6.80;;;;;;;2.66;71.81;99011.69;109234;1276;22526;-58
2022/02/06 12:41:26;;;;;;;18.10;7.10;;;;;;;2.64;71.58;99002.80;109190;1276;137289;-58
2022/02/06 12:44:03;;;;;;;12.20;6.10;;;;;;;2.64;71.35;98997.15;109279;1275;23638;-58
2022/02/06 12:46:33;;;;;;;13.30;5.90;;;;;;;2.65;71.15;99001.02;109071;1276;138196;-58
2022/02/06 12:49:03;;;;;;;10.70;5.70;;;;;;;2.66;71.07;99002.70;109256;1276;22402;-58
2022/02/06 12:51:35;;;;;;;13.00;5.00;;;;;;;2.68;71.16;98997.98;109228;1276;23184;-58
2022/02/06 12:54:10;;;;;;;13.60;5.50;;;;;;;2.68;71.00;98997.69;109194;1275;137446;-58
2022/02/06 12:56:39;;;;;;;11.40;5.70;;;;;;;2.68;70.92;98995.90;109286;1276;22419;-58
2022/02/06 12:59:09;;;;;;;13.00;5.80;;;;;;;2.69;71.01;98997.27;109141;1275;137381;-58
2022/02/06 13:01:40;;;;;;;12.50;5.90;;;;;;;2.69;70.87;98996.94;109138;1276;23815;-59
2022/02/06 13:04:13;;;;;;;10.70;6.30;;;;;;;2.68;70.73;98991.52;109296;1274;23280;-58
2022/02/06 13:06:47;;;;;;;8.20;4.90;;;;;;;2.67;70.93;98984.24;109091;1276;137519;-58
2022/02/06 13:09:24;;;;;;;13.00;7.20;;;;;;;2.66;70.92;98984.14;109232;1276;22543;-57
2022/02/06 13:30:48;;;;;;;11.00;6.40;;;;;;;2.57;70.41;98984.47;109117;1275;137987;-58
2022/02/06 13:38:59;;;;;;;11.40;5.10;;;;;;;2.57;70.53;98968.91;109270;1276;23680;-58
2022/02/06 13:41:33;;;;;;;9.40;4.70;;;;;;;2.57;70.24;98969.98;109147;1276;138452;-58
2022/02/06 13:44:02;;;;;;;10.50;5.50;;;;;;;2.56;70.16;98968.84;109280;1276;22429;-58
2022/02/06 13:46:33;;;;;;;7.90;4.50;;;;;;;2.56;70.20;98964.62;109158;1276;139016;-58
2022/02/06 13:49:02;;;;;;;12.20;5.90;;;;;;;2.55;69.92;98965.98;109103;1276;22559;-58
2022/02/06 13:51:35;;;;;;;19.90;8.40;;;;;;;2.53;69.96;98961.62;109192;1275;23121;-58
2022/02/06 13:54:04;;;;;;;10.40;5.60;;;;;;;2.53;69.87;98965.55;108980;1276;137170;-60
2022/02/06 13:56:34;;;;;;;18.40;6.60;;;;;;;2.52;69.83;98963.69;109151;1275;22495;-58
2022/02/06 13:59:33;;;;;;;15.60;5.70;;;;;;;2.52;69.88;98964.97;109114;1275;137593;-58
2022/02/06 14:02:08;;;;;;;14.80;7.00;;;;;;;2.51;69.65;98966.92;109208;1276;22569;-57
2022/02/06 14:04:39;;;;;;;8.80;5.30;;;;;;;2.50;69.43;98962.91;109112;1274;137371;-57
2022/02/06 14:07:16;;;;;;;10.60;5.40;;;;;;;2.48;69.42;98968.10;109224;1276;23232;-58
2022/02/06 14:09:59;;;;;;;8.60;3.70;;;;;;;2.47;69.21;98968.06;109205;1276;23690;-58
2022/02/06 14:12:28;;;;;;;10.90;5.20;;;;;;;2.49;69.05;98970.04;109020;1275;139282;-58
2022/02/06 14:15:01;;;;;;;8.40;4.10;;;;;;;2.48;68.99;98974.10;109223;1276;23518;-58
2022/02/06 14:17:35;;;;;;;11.30;5.00;;;;;;;2.48;69.01;98973.77;109146;1276;137930;-57
2022/02/06 14:20:14;;;;;;;11.80;5.50;;;;;;;2.46;68.90;98976.09;109197;1276;23867;-58
2022/02/06 14:22:50;;;;;;;14.20;5.70;;;;;;;2.45;68.85;98976.60;109093;1276;138194;-58
2022/02/06 14:25:31;;;;;;;8.20;4.50;;;;;;;2.43;68.61;98974.03;109222;1276;22516;-57
2022/02/06 14:27:59;;;;;;;10.60;5.30;;;;;;;2.41;68.61;98976.02;109270;1276;22438;-58
2022/02/06 14:30:39;;;;;;;10.10;4.50;;;;;;;2.38;68.46;98973.81;109183;1275;137947;-57
2022/02/06 14:33:11;;;;;;;10.50;5.00;;;;;;;2.31;68.32;98972.20;109233;1276;22257;-58
2022/02/06 14:35:58;;;;;;;9.30;4.80;;;;;;;2.27;68.27;98976.27;109146;1276;138843;-58
2022/02/06 14:38:37;;;;;;;19.60;8.60;;;;;;;2.21;68.10;98974.64;109260;1276;22586;-57
2022/02/06 14:41:23;;;;;;;8.60;4.10;;;;;;;2.14;68.20;98965.05;109094;1275;137575;-57
2022/02/06 14:43:58;;;;;;;9.50;5.50;;;;;;;2.09;68.00;98978.02;109250;1276;22672;-58